createdAt,value
2022-11-09T00:02:23.215Z,98864.73
2022-11-09T00:04:56.905Z,98866.50
2022-11-09T00:07:32.775Z,98862.14
2022-11-09T00:10:08.106Z,98876.83
2022-11-09T00:12:41.888Z,98871.63
2022-11-09T00:15:15.569Z,98877.66
2022-11-09T00:17:49.174Z,98858.61
2022-11-09T00:20:22.579Z,98863.81
2022-11-09T00:22:58.096Z,98897.56
2022-11-09T00:25:32.271Z,98872.46
2022-11-09T00:28:06.251Z,98882.91
2022-11-09T00:30:39.641Z,98874.22
2022-11-09T00:33:13.241Z,98875.11
2022-11-09T00:35:48.362Z,98878.64
2022-11-09T00:38:22.464Z,98874.31
2022-11-09T00:40:55.972Z,98877.75
2022-11-09T00:43:29.649Z,98882.12
2022-11-09T00:46:03.453Z,98874.41
2022-11-09T00:48:37.197Z,98878.70
2022-11-09T00:51:11.920Z,98883.07
2022-11-09T00:53:47.687Z,98877.05
2022-11-09T00:56:21.462Z,98883.91
2022-11-09T00:58:57.095Z,98878.72
2022-11-09T01:01:30.864Z,98872.68
2022-11-09T01:04:04.511Z,98873.57
2022-11-09T01:06:39.412Z,98886.61
2022-11-09T01:09:14.557Z,98890.13
2022-11-09T01:11:48.100Z,98880.64
2022-11-09T01:14:21.719Z,98881.50
2022-11-09T01:16:55.238Z,98884.11
2022-11-09T01:19:30.493Z,98884.94
2022-11-09T01:22:04.047Z,98893.64
2022-11-09T01:24:37.549Z,98882.42
2022-11-09T01:27:11.332Z,98888.48
2022-11-09T01:29:44.830Z,98886.71
2022-11-09T01:32:18.464Z,98894.51
2022-11-09T01:34:51.979Z,98887.53
2022-11-09T01:37:25.612Z,98888.34
2022-11-09T01:39:59.188Z,98898.72
2022-11-09T01:42:38.499Z,98883.99
2022-11-09T01:45:28.128Z,98906.53
2022-11-09T01:48:08.248Z,98898.75
2022-11-09T01:50:45.260Z,98888.36
2022-11-09T01:53:21.599Z,98896.17
2022-11-09T01:55:57.826Z,98891.89
2022-11-09T01:58:34.569Z,98896.19
2022-11-09T02:01:10.622Z,98909.23
2022-11-09T02:03:47.394Z,98905.73
2022-11-09T02:06:24.322Z,98899.70
2022-11-09T02:09:00.955Z,98911.02
2022-11-09T02:11:36.244Z,98899.72
2022-11-09T02:14:11.237Z,98909.25
2022-11-09T02:16:46.215Z,98904.98
2022-11-09T02:19:19.844Z,98905.85
2022-11-09T02:21:54.650Z,98911.05
2022-11-09T02:24:29.819Z,98911.11
2022-11-09T02:27:04.043Z,98911.11
2022-11-09T02:29:40.994Z,98918.06
2022-11-09T02:32:18.329Z,98918.94
2022-11-09T02:34:52.137Z,98923.26
2022-11-09T02:37:30.632Z,98922.36
2022-11-09T02:40:07.321Z,98912.80
2022-11-09T02:42:41.847Z,98920.58
2022-11-09T02:45:15.327Z,98921.44
2022-11-09T02:47:49.107Z,98911.97
2022-11-09T02:50:22.516Z,98924.98
2022-11-09T02:52:56.054Z,98921.53
2022-11-09T02:55:29.373Z,98919.78
2022-11-09T02:58:02.990Z,98926.76
2022-11-09T03:00:36.478Z,98929.42
2022-11-09T03:03:10.806Z,98929.42
2022-11-09T03:05:45.160Z,98933.73
2022-11-09T03:08:19.387Z,98936.38
2022-11-09T03:10:53.975Z,98938.14
2022-11-09T03:13:27.710Z,98932.11
2022-11-09T03:18:48.095Z,98942.66
2022-11-09T03:21:22.188Z,98939.76
2022-11-09T03:23:57.564Z,98935.67
2022-11-09T03:26:30.981Z,98933.14
2022-11-09T03:29:04.884Z,98934.86
2022-11-09T03:31:40.071Z,98940.13
2022-11-09T03:34:14.864Z,98929.72
2022-11-09T03:36:48.405Z,98929.66
2022-11-09T03:39:22.740Z,98935.78
2022-11-09T03:41:56.175Z,98943.58
2022-11-09T03:44:30.880Z,98940.13
2022-11-09T03:47:04.598Z,98938.39
2022-11-09T03:49:37.916Z,98940.98
2022-11-09T03:52:11.526Z,98938.45
2022-11-09T03:54:45.252Z,98951.41
2022-11-09T03:57:18.739Z,98950.56
2022-11-09T03:59:51.992Z,98947.96
2022-11-09T04:02:25.424Z,98947.96
2022-11-09T04:04:58.968Z,98947.11
2022-11-09T04:10:22.097Z,98949.05
2022-11-09T04:12:55.607Z,98953.25
2022-11-09T04:15:28.993Z,98948.05
2022-11-09T04:18:03.628Z,98953.27
2022-11-09T04:20:37.122Z,98953.27
2022-11-09T04:23:12.579Z,98947.23
2022-11-09T04:25:46.163Z,98949.87
2022-11-09T04:28:21.365Z,98942.92
2022-11-09T04:30:54.895Z,98942.92
2022-11-09T04:33:30.240Z,98945.53
2022-11-09T04:36:07.799Z,98950.72
2022-11-09T04:38:40.858Z,98938.56
2022-11-09T04:41:14.493Z,98935.97
2022-11-09T04:43:47.717Z,98955.11
2022-11-09T04:46:21.046Z,98960.30
2022-11-09T04:49:06.036Z,98964.67
2022-11-09T04:51:39.943Z,98964.69
2022-11-09T04:54:13.864Z,98963.81
2022-11-09T04:56:47.272Z,98972.48
2022-11-09T04:59:20.975Z,98976.84
2022-11-09T05:01:54.367Z,98977.75
2022-11-09T05:07:04.971Z,98974.27
2022-11-09T05:09:38.277Z,98974.27
2022-11-09T05:12:12.595Z,98971.67
2022-11-09T05:14:45.928Z,98982.13
2022-11-09T05:17:19.394Z,98971.73
2022-11-09T05:19:55.866Z,98963.93
2022-11-09T05:22:44.854Z,98980.45
2022-11-09T05:25:18.649Z,98982.17
2022-11-09T05:27:51.813Z,98974.36
2022-11-09T05:30:25.365Z,98987.37
2022-11-09T05:32:59.095Z,98986.55
2022-11-09T05:35:32.466Z,98978.73
2022-11-09T05:38:06.048Z,98975.28
2022-11-09T05:40:39.713Z,98991.81
2022-11-09T05:43:13.072Z,98991.81
2022-11-09T05:45:47.271Z,98990.12
2022-11-09T05:48:21.379Z,98977.13
2022-11-09T05:50:54.947Z,98986.70
2022-11-09T05:53:30.502Z,98989.39
2022-11-09T05:56:09.576Z,98986.87
2022-11-09T05:58:43.002Z,98986.95
2022-11-09T06:01:18.830Z,98980.05
2022-11-09T06:03:53.771Z,98985.27
2022-11-09T06:06:30.262Z,99005.30
2022-11-09T06:09:04.027Z,98999.99
2022-11-09T06:11:37.247Z,99003.50
2022-11-09T06:14:10.547Z,98987.98
2022-11-09T06:16:44.030Z,98997.48
2022-11-09T06:19:17.618Z,99001.85
2022-11-09T06:21:51.008Z,99005.31
2022-11-09T06:24:24.325Z,99000.11
2022-11-09T06:26:58.359Z,99004.44
2022-11-09T06:29:32.028Z,99001.83
2022-11-09T06:32:05.636Z,99020.11
2022-11-09T06:34:39.189Z,99011.42
2022-11-09T06:37:13.204Z,99019.23
2022-11-09T06:39:47.600Z,99009.67
2022-11-09T06:42:21.395Z,99007.90
2022-11-09T06:44:55.207Z,99013.20
2022-11-09T06:47:30.352Z,99023.61
2022-11-09T06:50:04.073Z,99021.01
2022-11-09T06:52:37.570Z,99027.07
2022-11-09T06:55:12.767Z,99029.73
2022-11-09T06:57:46.195Z,99035.86
2022-11-09T07:00:21.808Z,99051.49
2022-11-09T07:02:55.331Z,99042.78
2022-11-09T07:05:29.012Z,99058.41
2022-11-09T07:08:02.358Z,99041.94
2022-11-09T07:10:35.736Z,99046.31
2022-11-09T07:13:10.275Z,99047.28
2022-11-09T07:15:43.743Z,99054.33
2022-11-09T07:18:17.179Z,99050.88
2022-11-09T07:20:50.715Z,99069.14
2022-11-09T07:23:24.164Z,99062.16
2022-11-09T07:25:59.356Z,99056.09
2022-11-09T07:28:32.743Z,99044.83
2022-11-09T07:31:06.476Z,99060.47
2022-11-09T07:33:39.660Z,99050.95
2022-11-09T07:36:18.277Z,99053.50
2022-11-09T07:38:48.520Z,99055.24
2022-11-09T07:41:22.419Z,99057.88
2022-11-09T07:43:55.990Z,99070.10
2022-11-09T07:46:29.372Z,99063.16
2022-11-09T07:49:02.709Z,99053.63
2022-11-09T07:51:37.437Z,99066.67
2022-11-09T07:54:11.809Z,99069.30
2022-11-09T07:56:45.461Z,99067.57
2022-11-09T07:59:18.895Z,99053.63
2022-11-09T08:01:52.538Z,99057.08
2022-11-09T08:04:26.196Z,99068.36
2022-11-09T08:06:59.454Z,99071.81
2022-11-09T08:09:33.289Z,99071.81
2022-11-09T08:12:07.248Z,99082.17
2022-11-09T08:14:40.858Z,99072.66
2022-11-09T08:17:14.461Z,99078.73
2022-11-09T08:19:47.862Z,99074.41
2022-11-09T08:22:21.325Z,99073.58
2022-11-09T08:24:54.785Z,99080.55
2022-11-09T08:27:29.833Z,99073.71
2022-11-09T08:30:03.508Z,99070.31
2022-11-09T08:32:36.950Z,99078.13
2022-11-09T08:35:14.540Z,99079.85
2022-11-09T08:37:49.176Z,99072.87
2022-11-09T08:40:24.728Z,99072.88
2022-11-09T08:42:59.695Z,99069.41
2022-11-09T08:45:34.910Z,99078.09
2022-11-09T08:48:09.894Z,99080.69
2022-11-09T08:50:43.046Z,99072.91
2022-11-09T08:53:16.361Z,99055.53
2022-11-09T08:55:49.859Z,99069.48
2022-11-09T08:58:23.787Z,99053.88
2022-11-09T09:00:57.192Z,99079.11
2022-11-09T09:03:30.568Z,99073.89
2022-11-09T09:06:07.633Z,99072.09
2022-11-09T09:08:41.049Z,99066.88
2022-11-09T09:11:15.429Z,99062.56
2022-11-09T09:13:48.865Z,99077.30
2022-11-09T09:16:22.464Z,99079.96
2022-11-09T09:18:56.182Z,99074.76
2022-11-09T09:21:29.772Z,99068.74
2022-11-09T09:24:03.129Z,99065.28
2022-11-09T09:26:36.960Z,99059.21
2022-11-09T09:29:11.854Z,99070.45
2022-11-09T09:31:45.232Z,99077.41
2022-11-09T09:34:18.833Z,99066.93
2022-11-09T09:36:54.691Z,99073.90
2022-11-09T09:39:28.365Z,99067.84
2022-11-09T09:42:04.993Z,99072.25
2022-11-09T09:44:41.260Z,99062.66
2022-11-09T09:47:16.974Z,99057.39
2022-11-09T09:49:53.559Z,99062.56
2022-11-09T09:52:30.703Z,99059.05
2022-11-09T09:55:07.322Z,99057.34
2022-11-09T09:57:42.414Z,99053.03
2022-11-09T10:00:23.155Z,99057.45
2022-11-09T10:02:57.230Z,99063.52
2022-11-09T10:05:34.209Z,99048.72
2022-11-09T10:08:10.359Z,99062.66
2022-11-09T10:10:47.054Z,99065.27
2022-11-09T10:13:38.887Z,99064.37
2022-11-09T10:16:16.158Z,99073.10
2022-11-09T10:18:59.274Z,99073.09
2022-11-09T10:21:38.868Z,99063.53
2022-11-09T10:24:18.809Z,99069.64
2022-11-09T10:26:54.472Z,99068.75
2022-11-09T10:29:29.900Z,99070.48
2022-11-09T10:32:08.953Z,99071.34
2022-11-09T10:34:45.790Z,99073.05
2022-11-09T10:37:22.057Z,99067.78
2022-11-09T10:39:58.604Z,99061.70
2022-11-09T10:42:52.649Z,99074.70
2022-11-09T10:45:45.727Z,99079.00
2022-11-09T10:48:39.250Z,99077.17
2022-11-09T10:51:39.751Z,99071.94
2022-11-09T10:54:33.964Z,99070.13
2022-11-09T10:57:26.932Z,99074.43
2022-11-09T11:00:21.028Z,99068.34
2022-11-09T11:03:18.326Z,99069.19
2022-11-09T11:06:12.993Z,99073.52
2022-11-09T11:09:19.824Z,99066.58
2022-11-09T11:12:17.810Z,99077.88
2022-11-09T11:15:21.579Z,99063.13
2022-11-09T11:21:32.900Z,99075.17
2022-11-09T11:24:23.944Z,99074.26
2022-11-09T11:27:18.232Z,99073.37
2022-11-09T11:30:15.179Z,99062.94
2022-11-09T11:33:11.140Z,99068.15
2022-11-09T11:36:06.332Z,99072.50
2022-11-09T11:39:01.725Z,99078.58
2022-11-09T11:42:03.961Z,99056.89
2022-11-09T11:45:38.439Z,99061.26
2022-11-09T11:48:05.026Z,99065.61
2022-11-09T11:53:57.728Z,99064.00
2022-11-09T11:56:51.982Z,99062.21
2022-11-09T12:00:06.149Z,99060.53
2022-11-09T12:03:35.509Z,99059.69
2022-11-09T12:06:54.716Z,99057.94
2022-11-09T12:10:31.352Z,99060.52
2022-11-09T12:13:43.445Z,99058.78
2022-11-09T12:16:37.464Z,99061.38
2022-11-09T12:19:40.758Z,99065.70
2022-11-09T12:22:36.941Z,99063.09
2022-11-09T12:25:31.362Z,99069.20
2022-11-09T12:28:31.397Z,99080.48
2022-11-09T12:31:27.918Z,99087.44
2022-11-09T12:34:22.215Z,99073.50
2022-11-09T12:37:16.314Z,99066.61
2022-11-09T12:40:15.101Z,99080.48
2022-11-09T12:43:09.346Z,99072.70
2022-11-09T12:46:02.372Z,99074.41
2022-11-09T12:48:54.915Z,99070.06
2022-11-09T12:51:46.373Z,99080.53
2022-11-09T12:54:39.491Z,99099.63
2022-11-09T12:57:33.472Z,99070.91
2022-11-09T13:03:36.605Z,99095.43
2022-11-09T13:06:29.491Z,99083.21
2022-11-09T13:09:25.785Z,99079.72
2022-11-09T13:12:22.786Z,99098.85
2022-11-09T13:15:25.834Z,99098.85
2022-11-09T13:18:30.433Z,99095.36
2022-11-09T13:25:02.493Z,99120.70
2022-11-09T13:27:53.745Z,99110.16
2022-11-09T13:30:45.470Z,99107.54
2022-11-09T13:33:39.778Z,99107.54
2022-11-09T13:36:31.112Z,99105.78
2022-11-09T13:39:41.434Z,99091.89
2022-11-09T13:42:36.131Z,99104.06
2022-11-09T13:45:33.606Z,99097.97
2022-11-09T13:48:43.428Z,99100.63
2022-11-09T13:51:48.259Z,99104.08
2022-11-09T13:54:45.602Z,99109.28
2022-11-09T13:57:38.243Z,99095.35
2022-11-09T14:00:29.778Z,99102.33
2022-11-09T14:03:23.742Z,99116.25
2022-11-09T14:06:15.238Z,99107.54
2022-11-09T14:09:06.892Z,99106.70
2022-11-09T14:12:06.550Z,99103.23
2022-11-09T14:15:23.113Z,99094.56
2022-11-09T14:18:21.041Z,99099.79
2022-11-09T14:21:19.119Z,99097.23
2022-11-09T14:24:19.768Z,99092.92
2022-11-09T14:27:20.421Z,99093.84
2022-11-09T14:30:22.602Z,99083.42
2022-11-09T14:33:24.637Z,99083.42
2022-11-09T14:36:18.084Z,99099.93
2022-11-09T14:39:15.425Z,99096.46
2022-11-09T14:42:07.291Z,99094.75
2022-11-09T14:44:58.913Z,99106.11
2022-11-09T14:47:53.193Z,99100.84
2022-11-09T14:50:45.206Z,99103.45
2022-11-09T14:53:39.009Z,99085.19
2022-11-09T14:56:34.075Z,99094.76
2022-11-09T14:59:28.358Z,99101.73
2022-11-09T15:02:21.202Z,99081.67
2022-11-09T15:05:33.106Z,99108.70
2022-11-09T15:08:24.862Z,99120.86
2022-11-09T15:11:16.044Z,99109.61
2022-11-09T15:14:15.872Z,99104.39
2022-11-09T15:17:11.004Z,99121.76
2022-11-09T15:20:05.881Z,99111.33
2022-11-09T15:22:59.300Z,99133.94
2022-11-09T15:25:59.490Z,99106.11
2022-11-09T15:28:51.627Z,99113.08
2022-11-09T15:31:58.726Z,99113.09
2022-11-09T15:34:58.372Z,99108.72
2022-11-09T15:37:55.813Z,99134.80
2022-11-09T15:40:46.820Z,99125.27
2022-11-09T15:43:38.034Z,99095.67
2022-11-09T15:46:31.369Z,99110.42
2022-11-09T15:49:25.377Z,99100.03
2022-11-09T15:52:16.105Z,99109.57
2022-11-09T15:55:08.018Z,99123.47
2022-11-09T15:57:58.853Z,99122.61
2022-11-09T16:00:50.404Z,99103.50
2022-11-09T16:03:41.613Z,99096.53
2022-11-09T16:06:32.757Z,99109.61
2022-11-09T16:09:23.842Z,99110.42
2022-11-09T16:12:14.823Z,99150.44
2022-11-09T16:15:06.328Z,99106.11
2022-11-09T16:17:57.409Z,99106.11
2022-11-09T16:20:48.467Z,99102.60
2022-11-09T16:23:39.948Z,99112.19
2022-11-09T16:26:32.124Z,99108.70
2022-11-09T16:29:25.859Z,99110.46
2022-11-09T16:32:17.207Z,99117.40
2022-11-09T16:35:28.367Z,99109.57
2022-11-09T16:38:05.253Z,99115.68
2022-11-09T16:40:56.362Z,99087.86
2022-11-09T16:43:48.897Z,99105.27
2022-11-09T16:46:41.373Z,99100.03
2022-11-09T16:49:33.389Z,99102.65
2022-11-09T16:52:26.105Z,99108.77
2022-11-09T16:55:17.579Z,99090.52
2022-11-09T16:58:09.109Z,99094.83
2022-11-09T17:01:20.535Z,99111.39
2022-11-09T17:03:52.849Z,99116.61
2022-11-09T17:06:44.025Z,99118.36
2022-11-09T17:09:37.103Z,99088.81
2022-11-09T17:12:28.180Z,99122.73
2022-11-09T17:15:20.206Z,99120.12
2022-11-09T17:18:13.057Z,99099.25
2022-11-09T17:21:04.273Z,99115.76
2022-11-09T17:23:57.024Z,99127.09
2022-11-09T17:26:48.094Z,99116.66
2022-11-09T17:29:39.398Z,99113.19
2022-11-09T17:32:30.745Z,99135.78
2022-11-09T17:35:22.165Z,99133.17
2022-11-09T17:38:13.657Z,99130.55
2022-11-09T17:41:09.559Z,99120.12
2022-11-09T17:44:04.095Z,99121.02
2022-11-09T17:46:55.571Z,99118.37
2022-11-09T17:49:46.894Z,99133.17
2022-11-09T17:55:24.017Z,99106.28
2022-11-09T17:58:15.151Z,99124.48
2022-11-09T18:01:10.206Z,99128.85
2022-11-09T18:04:06.342Z,99121.92
2022-11-09T18:06:55.666Z,99125.34
2022-11-09T18:09:47.487Z,99123.63
2022-11-09T18:12:38.777Z,99134.06
2022-11-09T18:15:30.269Z,99137.53
2022-11-09T18:18:22.157Z,99131.47
2022-11-09T18:21:15.701Z,99135.78
2022-11-09T18:24:08.230Z,99161.92
2022-11-09T18:26:59.546Z,99123.63
2022-11-09T18:29:50.531Z,99143.61
2022-11-09T18:32:42.021Z,99122.73
2022-11-09T18:35:33.489Z,99154.94
2022-11-09T18:38:29.133Z,99140.14
2022-11-09T18:41:19.574Z,99161.02
2022-11-09T18:44:11.218Z,99123.63
2022-11-09T18:47:05.598Z,99115.80
2022-11-09T18:49:55.843Z,99140.99
2022-11-09T18:52:47.711Z,99123.63
2022-11-09T18:55:38.916Z,99132.31
2022-11-09T18:58:30.800Z,99137.53
2022-11-09T19:01:24.533Z,99122.73
2022-11-09T19:04:17.534Z,99154.05
2022-11-09T19:07:08.991Z,99147.11
2022-11-09T19:10:01.154Z,99135.77
2022-11-09T19:12:52.682Z,99137.52
2022-11-09T19:15:47.041Z,99138.39
2022-11-09T19:18:38.518Z,99135.78
2022-11-09T19:21:40.094Z,99145.36
2022-11-09T19:24:31.611Z,99164.47
2022-11-09T19:27:24.837Z,99166.18
2022-11-09T19:30:16.774Z,99161.85
2022-11-09T19:33:11.039Z,99154.03
2022-11-09T19:36:28.507Z,99148.81
2022-11-09T19:38:56.347Z,99155.73
2022-11-09T19:41:48.133Z,99148.76
2022-11-09T19:44:41.205Z,99157.48
2022-11-09T19:47:33.980Z,99144.45
2022-11-09T19:50:25.588Z,99151.42
2022-11-09T19:53:18.154Z,99176.61
2022-11-09T19:56:11.787Z,99137.52
2022-11-09T19:59:04.930Z,99141.83
2022-11-09T20:01:57.031Z,99151.38
2022-11-09T20:04:50.177Z,99152.27
2022-11-09T20:07:41.540Z,99152.27
2022-11-09T20:10:32.999Z,99151.36
2022-11-09T20:13:25.503Z,99156.57
2022-11-09T20:16:17.055Z,99150.50
2022-11-09T20:19:10.293Z,99156.58
2022-11-09T20:22:01.953Z,99173.94
2022-11-09T20:24:53.471Z,99160.94
2022-11-09T20:27:45.507Z,99173.09
2022-11-09T20:30:38.846Z,99167.00
2022-11-09T20:33:30.363Z,99156.56
2022-11-09T20:36:22.020Z,99146.94
2022-11-09T20:39:13.728Z,99180.84
2022-11-09T20:42:12.239Z,99165.20
2022-11-09T20:45:06.168Z,99169.54
2022-11-09T20:48:10.580Z,99139.11
2022-11-09T20:50:50.747Z,99161.72
2022-11-09T20:53:42.442Z,99158.21
2022-11-09T20:56:34.102Z,99156.51
2022-11-09T20:59:25.495Z,99163.43
2022-11-09T21:02:18.186Z,99158.20
2022-11-09T21:05:10.687Z,99167.78
2022-11-09T21:08:02.762Z,99172.95
2022-11-09T21:10:54.120Z,99162.52
2022-11-09T21:13:47.409Z,99176.45
2022-11-09T21:16:38.877Z,99161.64
2022-11-09T21:19:30.817Z,99165.96
2022-11-09T21:22:22.154Z,99173.77
2022-11-09T21:25:31.234Z,99188.52
2022-11-09T21:28:47.913Z,99170.27
2022-11-09T21:31:39.131Z,99173.77
2022-11-09T21:34:36.228Z,99180.69
2022-11-09T21:37:24.606Z,99176.37
2022-11-09T21:40:15.843Z,99180.68
2022-11-09T21:43:07.736Z,99181.58
2022-11-09T21:45:59.075Z,99164.19
2022-11-09T21:48:50.436Z,99183.30
2022-11-09T21:51:42.636Z,99170.23
2022-11-09T21:54:34.194Z,99177.21
2022-11-09T21:57:25.802Z,99180.67
2022-11-09T22:00:19.897Z,99189.34
2022-11-09T22:03:11.272Z,99165.88
2022-11-09T22:06:03.176Z,99192.80
2022-11-09T22:08:55.124Z,99192.81
2022-11-09T22:12:05.105Z,99213.67
2022-11-09T22:15:14.166Z,99198.02
2022-11-09T22:18:06.062Z,99194.50
2022-11-09T22:21:04.588Z,99213.63
2022-11-09T22:23:58.406Z,99231.89
2022-11-09T22:26:50.079Z,99232.75
2022-11-09T22:29:41.590Z,99200.55
2022-11-09T22:32:34.155Z,99223.17
2022-11-09T22:35:25.799Z,99204.92
2022-11-09T22:38:17.111Z,99230.98
2022-11-09T22:41:10.581Z,99197.11
2022-11-09T22:44:01.686Z,99204.06
2022-11-09T22:46:52.863Z,99209.28
2022-11-09T22:49:44.257Z,99209.27
2022-11-09T22:52:35.535Z,99190.17
2022-11-09T22:55:26.950Z,99192.73
2022-11-09T22:58:18.299Z,99211.87
2022-11-09T23:01:12.687Z,99194.49
2022-11-09T23:04:04.274Z,99197.09
2022-11-09T23:06:55.553Z,99198.84
2022-11-09T23:09:46.980Z,99206.60
2022-11-09T23:12:38.372Z,99194.47
2022-11-09T23:15:30.267Z,99191.86
2022-11-09T23:18:39.113Z,99194.42
2022-11-09T23:21:32.748Z,99205.83
2022-11-09T23:24:42.923Z,99200.53
2022-11-09T23:27:34.432Z,99192.72
2022-11-09T23:30:26.726Z,99206.60
2022-11-09T23:33:18.566Z,99215.33
2022-11-09T23:36:11.949Z,99231.82
2022-11-09T23:39:03.556Z,99202.28
2022-11-09T23:41:55.324Z,99204.84
2022-11-09T23:44:46.374Z,99196.17
2022-11-09T23:47:37.655Z,99203.98
2022-11-09T23:50:29.671Z,99199.63
2022-11-09T23:53:21.583Z,99211.81
2022-11-09T23:56:14.801Z,99195.33
2022-11-09T23:59:06.325Z,99217.09
